Tiempo atmosférico en la estación meteorológica de Motilla Del Palancar, Cuenca (830 m.)



Fecha
DESCASC
Temp. máxima en grados centígrados (hora)
DESCASC
Temp. mínima en grados centígrados (hora)
DESCASC
Temp. media en grados centígrados
DESCASC
Racha de viento máxima en m/sg (hora)
DESCASC
Velocidad máxima media en intervalos de 10 minutos(hora)
DESCASC
Precipitaciones diarias en mm
DESCASC
Precipitaciones de 00:00 a 06:00 en mm
DESCASC
Precipitaciones de 06:00 a 12:00 en mm
DESCASC
Precipitaciones de 12:00 a 18:00 en mm
DESCASC
Precipitaciones de 18:00 a 24:00 en mm
DESCASC
15-08-2019 34.4 (17:20) 16.5 (07:20) 25.5 10 (22:00) 5 (22:00) 0 0 0 0 0
14-08-2019 31.6 (18:10) 15.8 (00:00) 23.7 8.61 (17:00) 3.89 (16:10) 0 0 0 0 0
13-08-2019 29.3 (18:20) 16.7 (00:00) 23 8.89 (22:20) 5 (10:30) 0 0 0 0 0
12-08-2019 29.6 (17:30) 11.8 (00:00) 20.7 8.89 (22:40) 5.28 (21:20) 0 0 0 0 0
11-08-2019 30.3 (16:00) 16.9 (00:00) 23.6 10.83 (17:40) 5.83 (15:50) 0 0 0 0 0
10-08-2019 33.5 (18:00) 15.8 (00:00) 24.7 8.61 (18:10) 5 (16:30) 0 0 0 0 0
09-08-2019 33.2 (18:30) 14.1 (00:00) 23.7 11.11 (15:20) 6.67 (15:40) 0 0 0 0 0
08-08-2019 33.8 (17:20) 15.4 (00:00) 24.6 9.72 (18:40) 5.28 (17:30) 0 0 0 0 0
07-08-2019 32.1 (16:10) 13.9 (00:00) 23 10.28 (15:20) 5.83 (12:00) 0 0 0 0 0
06-08-2019 35.5 (16:20) 16.5 (00:00) 26 11.94 (15:50) 5.28 (15:30) 0 0 0 0 0
05-08-2019 35.6 (16:50) 17.3 (00:00) 26.4 8.33 (14:30) 5.28 (14:30) 0 0 0 0 0
04-08-2019 35.3 (17:40) 16.6 (00:00) 25.9 8.33 (16:20) 5 (15:50) 0 0 0 0 0
03-08-2019 35 (18:40) 18.7 (00:00) 26.9 7.5 (16:30) 3.61 (16:50) 0 0 0 0 0
02-08-2019 34.8 (18:10) 15 (00:00) 24.9 8.89 (21:00) 4.72 (22:10) 0 0 0 0 0
01-08-2019 33.5 (17:50) 16 (00:00) 24.8 10.56 (00:20) 5.56 (00:10) 0 0 0 0 0
31-07-2019 28.5 (15:50) 17.2 (00:00) 22.9 12.5 (15:40) 6.67 (13:00) 0 0 0 0 0
30-07-2019 32.6 (17:20) 12.9 (00:00) 22.7 10.28 (20:30) 5.56 (20:10) 0 0 0 0 0
29-07-2019 32.2 (17:10) 15.7 (00:00) 24 9.72 (18:10) 5.83 (19:00) 0 0 0 0 0
28-07-2019 29.1 (17:10) 12.7 (00:00) 20.9 9.17 (13:00) 4.72 (13:10) 0 0 0 0 0
27-07-2019 26.9 (16:20) 14.1 (00:00) 20.5 14.17 (16:50) 7.22 (19:10) 0 0 0 0 0
26-07-2019 31.2 (17:10) 19.6 (00:00) 25.4 10.83 (16:30) 6.39 (19:50) 0 0 0 0 0
25-07-2019 35.3 (17:10) 20.4 (00:00) 27.8 8.61 (16:10) 5.83 (20:30) 0 0 0 0 0
24-07-2019 36.2 (17:10) 20.3 (00:00) 28.3 11.11 (16:50) 7.5 (18:40) 0 0 0 0 0
23-07-2019 36.2 (16:30) 18.3 (00:00) 27.3 11.94 (17:00) 8.06 (17:00) 0 0 0 0 0
22-07-2019 34.6 (16:50) 19 (00:00) 26.8 11.11 (19:50) 6.67 (14:10) 0 0 0 0 0
21-07-2019 33.3 (16:20) 19.8 (00:00) 26.5 11.39 (16:50) 5.83 (15:20) 0 0 0 0 0
20-07-2019 35.6 (17:30) 17.3 (00:00) 26.4 11.11 (20:10) 6.94 (19:20) 0 0 0 0 0
19-07-2019 34.2 (17:10) 19.1 (00:00) 26.7 11.67 (17:40) 6.11 (17:40) 0 0 0 0 0

Gráficas

Temp. máximas Temp. mínimas Temp. medias Precipitaciones Rachas de viento máximas Velocidades máximas media en intervalos de 10 minutos

Datos horarios

Fecha y hora oficial Temperatura (ºC) Velocidad del viento (km/h) Dirección del viento Racha (km/h) Dirección de racha Precipitación (mm) Presión (hPa) Tendencia (hPa) Humedad (%)
2019-08-17 23:00:00 27.3 9 Sudeste 15 Sudeste 0 -- -- 42
2019-08-17 22:00:00 29 12 Sur 15 Sur 0 -- -- 33
2019-08-17 21:00:00 31.9 4 Noroeste 15 Noroeste 0 -- -- 22
2019-08-17 20:00:00 34.5 9 Oeste 25 Oeste 0 -- -- 20
2019-08-17 19:00:00 35.1 10 Sudoeste 40 Oeste 0 -- -- 20
2019-08-17 18:00:00 35.7 6 Sudoeste 26 Oeste 0 -- -- 18
2019-08-17 17:00:00 35.8 13 Sudoeste 37 Sudoeste 0 -- -- 18
2019-08-17 16:00:00 35.5 13 Oeste 31 Sudoeste 0 -- -- 19
2019-08-17 15:00:00 34.5 13 Sudoeste 30 Noroeste 0 -- -- 22
2019-08-17 14:00:00 33.5 12 Oeste 24 Sur 0 -- -- 28
2019-08-17 13:00:00 31.7 8 Sur 16 Sur 0 -- -- 34
2019-08-17 12:00:00 29.2 7 Sudoeste 14 Sudoeste 0 -- -- 39
2019-08-17 11:00:00 27.7 9 Sudoeste 16 Oeste 0 -- -- 40
2019-08-17 10:00:00 24.1 2 Sudoeste 7 Norte 0 -- -- 56
2019-08-17 09:00:00 19.4 5 Nordeste 9 Nordeste 0 -- -- 76
2019-08-17 08:00:00 17.4 5 Nordeste 9 Nordeste 0 -- -- 83
2019-08-17 07:00:00 17.6 3 Nordeste 9 Nordeste 0 -- -- 80
2019-08-17 06:00:00 17.7 3 Nordeste 7 Nordeste 0 -- -- 81
2019-08-17 05:00:00 19.4 4 Nordeste 14 Nordeste 0 -- -- 77
2019-08-17 04:00:00 20.5 5 Nordeste 12 Nordeste 0 -- -- 76
2019-08-17 03:00:00 21 8 Nordeste 13 Este 0 -- -- 75
2019-08-17 02:00:00 21.6 7 Este 12 Este 0 -- -- 72
2019-08-17 01:00:00 22.8 6 Este 18 Este 0 -- -- 68
2019-08-17 00:00:00 24.4 4 Este 15 Este 0 -- -- 62
2019-08-16 23:00:00 26.3 7 Sudeste 29 Sudeste 0 -- -- 56
2019-08-16 22:00:00 28.2 13 Sur 22 Sur 0 -- -- 39
2019-08-16 21:00:00 31.2 3 Oeste 17 Oeste 0 -- -- 24
2019-08-16 20:00:00 33.8 9 Oeste 23 Oeste 0 -- -- 19
2019-08-16 19:00:00 34.3 16 Oeste 35 Oeste 0 -- -- 20
2019-08-16 18:00:00 34.9 14 Sudoeste 29 Sudoeste 0 -- -- 20
2019-08-16 17:00:00 34.4 13 Oeste 24 Noroeste 0 -- -- 22
2019-08-16 16:00:00 33.2 6 Norte 22 Sur 0 -- -- 26
2019-08-16 15:00:00 32.1 8 Sudoeste 19 Sur 0 -- -- 27
2019-08-16 14:00:00 29.9 11 Sudoeste 21 Sudeste 0 -- -- 34
2019-08-16 13:00:00 28.4 11 Sudeste 24 Sudeste 0 -- -- 39
2019-08-16 12:00:00 26.4 13 Sudeste 22 Sudeste 0 -- -- 49
2019-08-16 11:00:00 24.3 12 Sudeste 22 Sudeste 0 -- -- 55
2019-08-16 10:00:00 22.5 11 Este 23 Este 0 -- -- 62
2019-08-16 09:00:00 18.6 7 Este 19 Este 0 -- -- 73
2019-08-16 08:00:00 17.1 3 Nordeste 13 Este 0 -- -- 80
2019-08-16 07:00:00 16.7 2 Este 8 Nordeste 0 -- -- 80
2019-08-16 06:00:00 17.1 5 Este 11 Este 0 -- -- 80
2019-08-16 05:00:00 18.3 3 Este 10 Nordeste 0 -- -- 72
2019-08-16 04:00:00 19.6 4 Este 15 Este 0 -- -- 69
2019-08-16 03:00:00 20.4 9 Este 21 Nordeste 0 -- -- 69
2019-08-16 02:00:00 20.8 4 Este 16 Este 0 -- -- 67
2019-08-16 01:00:00 21.7 7 Este 18 Este 0 -- -- 67
2019-08-16 00:00:00 22.6 7 Este 21 Este 0 -- -- 63
2019-08-15 23:00:00 24.2 8 Este 34 Sudeste 0 -- -- 62
2019-08-15 22:00:00 26.9 18 Este 36 Este 0 -- -- 52
2019-08-15 21:00:00 30.4 5 Oeste 14 Oeste 0 -- -- 22
2019-08-15 20:00:00 33.2 8 Oeste 16 Noroeste 0 -- -- 19
2019-08-15 19:00:00 33.7 10 Oeste 23 Oeste 0 -- -- 19
2019-08-15 18:00:00 34.1 9 Noroeste 21 Oeste 0 -- -- 19
2019-08-15 17:00:00 34.1 11 Oeste 25 Oeste 0 -- -- 19
2019-08-15 16:00:00 33.3 8 Sudoeste 22 Sur 0 -- -- 21
2019-08-15 15:00:00 32.6 8 Sur 21 Sudoeste 0 -- -- 24
2019-08-15 14:00:00 31.8 4 Este 16 Sur 0 -- -- 26
2019-08-15 13:00:00 29.8 7 Oeste 18 Sudeste 0 -- -- 30
2019-08-15 12:00:00 28.2 8 Sur 14 Sur 0 -- -- 41
2019-08-15 11:00:00 26.2 7 Sudeste 16 Este 0 -- -- 48
2019-08-15 10:00:00 24.5 8 Sudeste 15 Sudeste 0 -- -- 51
2019-08-15 09:00:00 19.1 4 Nordeste 8 Nordeste 0 -- -- 60
2019-08-15 08:00:00 17 5 Nordeste 8 Norte 0 -- -- 66
2019-08-15 07:00:00 17 5 Nordeste 10 Nordeste 0 -- -- 67
2019-08-15 06:00:00 17.3 5 Nordeste 10 Nordeste 0 -- -- 69
2019-08-15 05:00:00 18.6 5 Nordeste 10 Norte 0 -- -- 64
2019-08-15 04:00:00 19.4 6 Nordeste 12 Este 0 -- -- 64
2019-08-15 03:00:00 20 5 Nordeste 12 Nordeste 0 -- -- 67
2019-08-15 02:00:00 20.7 6 Nordeste 12 Este 0 -- -- 66
2019-08-15 01:00:00 21 2 Este 13 Nordeste 0 -- -- 53
2019-08-15 00:00:00 20.3 7 Nordeste 12 Nordeste 0 -- -- 33
2019-08-14 23:00:00 21.3 4 Nordeste 8 Nordeste 0 -- -- 31
2019-08-14 22:00:00 24.3 3 Noroeste 8 Oeste 0 -- -- 26
2019-08-14 21:00:00 28.5 5 Noroeste 19 Noroeste 0 -- -- 22
2019-08-14 20:00:00 30.6 10 Noroeste 25 Noroeste 0 -- -- 21
2019-08-14 19:00:00 31.5 10 Oeste 27 Noroeste 0 -- -- 21
2019-08-14 18:00:00 31.5 13 Noroeste 26 Oeste 0 -- -- 22
2019-08-14 17:00:00 31.1 14 Noroeste 31 Oeste 0 -- -- 22
2019-08-14 16:00:00 30.8 12 Noroeste 28 Noroeste 0 -- -- 24
2019-08-14 15:00:00 30.1 11 Noroeste 29 Noroeste 0 -- -- 25
2019-08-14 14:00:00 29.3 12 Noroeste 28 Noroeste 0 -- -- 24
2019-08-14 13:00:00 27.4 5 Oeste 19 Oeste 0 -- -- 34
2019-08-14 12:00:00 24.9 6 Sudoeste 13 Sur 0 -- -- 49
2019-08-14 11:00:00 22.8 4 Sudeste 13 Sur 0 -- -- 64
2019-08-14 10:00:00 20.5 5 Sur 12 Sur 0 -- -- 76
2019-08-14 09:00:00 16.9 2 Este 8 Nordeste 0 -- -- 91
2019-08-14 08:00:00 15.9 4 Nordeste 7 Norte 0 -- -- 90
2019-08-14 07:00:00 16.3 3 Nordeste 9 Nordeste 0 -- -- 92
2019-08-14 06:00:00 16.7 5 Este 14 Este 0 -- -- 91
2019-08-14 05:00:00 16.9 8 Nordeste 17 Nordeste 0 -- -- 91
2019-08-14 04:00:00 17.1 6 Este 13 Nordeste 0 -- -- 90
2019-08-14 03:00:00 17.4 4 Este 14 Nordeste 0 -- -- 89
2019-08-14 02:00:00 18.1 5 Este 18 Este 0 -- -- 86
2019-08-14 01:00:00 18.9 5 Este 21 Este 0 -- -- 82
2019-08-14 00:00:00 19.9 9 Este 28 Este 0 -- -- 78
2019-08-13 23:00:00 21.6 15 Sudeste 32 Sudeste 0 -- -- 68
2019-08-13 22:00:00 22.7 3 Oeste 10 Este 0 -- -- 31
2019-08-13 21:00:00 26.2 5 Oeste 19 Noroeste 0 -- -- 27
2019-08-13 20:00:00 28.1 9 Noroeste 22 Noroeste 0 -- -- 27
2019-08-13 19:00:00 28.9 13 Oeste 29 Noroeste 0 -- -- 26
2019-08-13 18:00:00 28.5 11 Sudoeste 23 Sudoeste 0 -- -- 31
2019-08-13 17:00:00 27.7 9 Sur 27 Sur 0 -- -- 33
2019-08-13 16:00:00 27.7 15 Sur 31 Oeste 0 -- -- 36
2019-08-13 15:00:00 27 10 Sudeste 25 Sur 0 -- -- 41
2019-08-13 14:00:00 26.4 12 Sudeste 26 Sudeste 0 -- -- 45
2019-08-13 13:00:00 24.8 13 Sudeste 25 Sur 0 -- -- 52
2019-08-13 12:00:00 24 13 Sudeste 27 Sudeste 0 -- -- 52
2019-08-13 11:00:00 22 14 Este 30 Sudeste 0 -- -- 58
2019-08-13 10:00:00 20 12 Este 25 Sudeste 0 -- -- 62
2019-08-13 09:00:00 18 9 Este 21 Este 0 -- -- 66
2019-08-13 08:00:00 16.8 10 Nordeste 23 Este 0 -- -- 65
2019-08-13 07:00:00 17 10 Este 23 Nordeste 0 -- -- 63
2019-08-13 06:00:00 17.2 11 Nordeste 21 Nordeste 0 -- -- 64
2019-08-13 05:00:00 17.2 9 Este 23 Nordeste 0 -- -- 59
2019-08-13 04:00:00 17.8 12 Este 24 Nordeste 0 -- -- 56
2019-08-13 03:00:00 18.2 15 Este 27 Este 0 -- -- 53
2019-08-13 02:00:00 19.1 10 Este 23 Nordeste 0 -- -- 76
2019-08-13 01:00:00 19.8 10 Este 25 Este 0 -- -- 77
2019-08-13 00:00:00 19.5 6 Este 29 Sudeste 0 -- -- 79
2019-08-12 23:00:00 20.2 12 Este 32 Este 0 -- -- 75
2019-08-12 22:00:00 21.7 14 Sudeste 31 Este 0 -- -- 67
2019-08-12 21:00:00 25.3 9 Sur 25 Sudeste 0 -- -- 43
2019-08-12 20:00:00 28 9 Oeste 17 Oeste 0 -- -- 16
2019-08-12 19:00:00 29 7 Sudoeste 21 Sur 0 -- -- 17
2019-08-12 18:00:00 29.5 9 Sudoeste 22 Sudoeste 0 -- -- 17
2019-08-12 17:00:00 29.2 3 Sudeste 27 Sudoeste 0 -- -- 18
2019-08-12 16:00:00 28.9 9 Oeste 19 Sur 0 -- -- 17
2019-08-12 15:00:00 28.2 12 Oeste 23 Oeste 0 -- -- 20
2019-08-12 14:00:00 27.6 10 Sur 18 Sudoeste 0 -- -- 21
2019-08-12 13:00:00 26 5 Sur 17 Sur 0 -- -- 23
2019-08-12 12:00:00 25 3 Norte 12 Nordeste 0 -- -- 28
2019-08-12 11:00:00 23.3 5 Nordeste 13 Nordeste 0 -- -- 31
2019-08-12 10:00:00 20.6 7 Este 15 Nordeste 0 -- -- 34
2019-08-12 09:00:00 17.5 6 Norte 13 Noroeste 0 -- -- 39
2019-08-12 08:00:00 12.4 0 Calma 6 Norte 0 -- -- 47
2019-08-12 07:00:00 12.6 2 Nordeste 6 Este 0 -- -- 43
2019-08-12 06:00:00 12.9 3 Nordeste 6 Nordeste 0 -- -- 41
2019-08-12 05:00:00 14 2 Sudoeste 7 Este 0 -- -- 39
2019-08-12 04:00:00 15.7 3 Noroeste 6 Noroeste 0 -- -- 34
2019-08-12 03:00:00 17.6 3 Noroeste 15 Noroeste 0 -- -- 28
2019-08-12 02:00:00 19.5 9 Oeste 14 Oeste 0 -- -- 24
2019-08-12 01:00:00 20.4 7 Oeste 12 Oeste 0 -- -- 22
2019-08-12 00:00:00 22.5 3 Noroeste 19 Noroeste 0 -- -- 22
2019-08-11 23:00:00 23.5 6 Oeste 17 Noroeste 0 -- -- 23
2019-08-11 22:00:00 25.2 9 Noroeste 25 Oeste 0 -- -- 22
2019-08-11 21:00:00 26.7 13 Oeste 27 Oeste 0 -- -- 21
2019-08-11 20:00:00 27.7 11 Oeste 27 Sudoeste 0 -- -- 22
2019-08-11 19:00:00 28.9 14 Oeste 34 Oeste 0 -- -- 21
2019-08-11 18:00:00 29.5 17 Oeste 39 Sudoeste 0 -- -- 21
2019-08-11 17:00:00 28.9 18 Oeste 33 Oeste 0 -- -- 22
2019-08-11 16:00:00 30.3 19 Sudoeste 35 Sudoeste 0 -- -- 22
2019-08-11 15:00:00 29.6 17 Oeste 37 Sudoeste 0 -- -- 23
2019-08-11 14:00:00 27.6 13 Oeste 28 Oeste 0 -- -- 27
2019-08-11 13:00:00 27.9 17 Oeste 33 Sudoeste 0 -- -- 26
2019-08-11 12:00:00 25.4 8 Oeste 18 Oeste 0 -- -- 33
2019-08-11 11:00:00 24 10 Oeste 15 Sudoeste 0 -- -- 42
2019-08-11 10:00:00 22.6 5 Sudoeste 13 Sudoeste 0 -- -- 64
2019-08-11 09:00:00 18.3 2 Sudoeste 4 Sudoeste 0 -- -- 91
2019-08-11 08:00:00 17.4 0 Calma 4 Oeste 0 -- -- 93
2019-08-11 07:00:00 17.9 4 Sur 10 Sudeste 0 -- -- 89
2019-08-11 06:00:00 19.4 5 Sudeste 14 Este 0 -- -- 87
2019-08-11 05:00:00 20.3 5 Este 16 Este 0 -- -- 82
2019-08-11 04:00:00 21 8 Este 21 Este 0 -- -- 77
2019-08-11 03:00:00 21.6 6 Este 15 Sudeste 0 -- -- 76
2019-08-11 02:00:00 22.5 5 Este 20 Sudeste 0 -- -- 73
2019-08-11 01:00:00 23.5 8 Este 24 Este 0 -- -- 70
2019-08-11 00:00:00 24.8 17 Este 30 Este 0 -- -- 67
2019-08-10 23:00:00 26.6 11 Este 22 Este 0 -- -- 61
2019-08-10 22:00:00 27.2 0 Calma 8 Noroeste 0 -- -- 38
2019-08-10 21:00:00 30.7 4 Noroeste 17 Sudoeste 0 -- -- 33
2019-08-10 20:00:00 32.5 7 Oeste 21 Sudoeste 0 -- -- 31
2019-08-10 19:00:00 32.9 6 Sudoeste 31 Sudoeste 0 -- -- 31
2019-08-10 18:00:00 33.5 15 Sudoeste 25 Sudoeste 0 -- -- 30
2019-08-10 17:00:00 32.8 15 Sudoeste 30 Sudoeste 0 -- -- 30
2019-08-10 16:00:00 32 14 Sudoeste 26 Sudoeste 0 -- -- 33
2019-08-10 15:00:00 30.8 9 Oeste 24 Sudoeste 0 -- -- 37
2019-08-10 14:00:00 29.8 14 Sudoeste 24 Sudoeste 0 -- -- 42
2019-08-10 13:00:00 28.4 10 Oeste 27 Sudoeste 0 -- -- 46
2019-08-10 12:00:00 27.3 12 Oeste 24 Oeste 0 -- -- 49
2019-08-10 11:00:00 25.7 9 Oeste 20 Oeste 0 -- -- 54
2019-08-10 10:00:00 24.2 10 Oeste 22 Oeste 0 -- -- 60
2019-08-10 09:00:00 19.9 2 Norte 7 Nordeste 0 -- -- 75
2019-08-10 08:00:00 17.9 4 Norte 9 Nordeste 0 -- -- 84
2019-08-10 07:00:00 15.8 0 Calma 5 Este 0 -- -- 77
2019-08-10 06:00:00 16.2 0 Calma 4 Oeste 0 -- -- 74
2019-08-10 05:00:00 17.6 0 Calma 5 Noroeste 0 -- -- 70
2019-08-10 04:00:00 19.2 2 Sur 6 Noroeste 0 -- -- 65
2019-08-10 03:00:00 21.9 0 Calma 9 Norte 0 -- -- 59
2019-08-10 02:00:00 22.2 0 Calma 9 Noroeste 0 -- -- 55
2019-08-10 01:00:00 23.9 5 Noroeste 12 Noroeste 0 -- -- 50
2019-08-10 00:00:00 25.3 4 Noroeste 14 Noroeste 0 -- -- 45
2019-08-09 23:00:00 26.8 7 Noroeste 13 Oeste 0 -- -- 40
2019-08-09 22:00:00 28.3 6 Noroeste 17 Oeste 0 -- -- 38
2019-08-09 21:00:00 30.1 9 Oeste 28 Oeste 0 -- -- 34
2019-08-09 20:00:00 31.7 17 Oeste 37 Sudoeste 0 -- -- 29
2019-08-09 19:00:00 32.7 18 Oeste 37 Oeste 0 -- -- 28
2019-08-09 18:00:00 33 19 Oeste 37 Sudoeste 0 -- -- 28
2019-08-09 17:00:00 33 21 Sudoeste 38 Sudoeste 0 -- -- 30
2019-08-09 16:00:00 32.4 18 Oeste 40 Oeste 0 -- -- 29
2019-08-09 15:00:00 31.7 21 Oeste 38 Oeste 0 -- -- 30
2019-08-09 14:00:00 31 19 Oeste 38 Oeste 0 -- -- 33
2019-08-09 13:00:00 29.9 16 Oeste 35 Oeste 0 -- -- 35
2019-08-09 12:00:00 28.4 15 Oeste 40 Oeste 0 -- -- 39
2019-08-09 11:00:00 26.7 12 Oeste 26 Oeste 0 -- -- 42
2019-08-09 10:00:00 24.3 12 Oeste 22 Oeste 0 -- -- 41
2019-08-09 09:00:00 18.4 4 Sudoeste 13 Oeste 0 -- -- 50
2019-08-09 08:00:00 14.1 0 Calma 4 Este 0 -- -- 61
2019-08-09 07:00:00 15.3 0 Calma 8 Nordeste 0 -- -- 56
2019-08-09 06:00:00 15.1 3 Nordeste 6 Este 0 -- -- 56
2019-08-09 05:00:00 17 3 Nordeste 5 Este 0 -- -- 52
2019-08-09 04:00:00 17.5 0 Calma 8 Nordeste 0 -- -- 50
2019-08-09 03:00:00 18.8 3 Nordeste 7 Nordeste 0 -- -- 45
2019-08-09 02:00:00 20.5 4 Nordeste 11 Norte 0 -- -- 42
2019-08-09 01:00:00 21.3 3 Norte 9 Este 0 -- -- 42
2019-08-09 00:00:00 21.9 0 Calma 8 Nordeste 0 -- -- 40
2019-08-08 23:00:00 24.1 4 Nordeste 6 Nordeste 0 -- -- 36
2019-08-08 22:00:00 27.4 2 Sudoeste 14 Oeste 0 -- -- 30
2019-08-08 21:00:00 30.7 8 Noroeste 23 Noroeste 0 -- -- 28
2019-08-08 20:00:00 32.5 13 Oeste 30 Oeste 0 -- -- 27
2019-08-08 19:00:00 33.3 17 Oeste 35 Oeste 0 -- -- 24
2019-08-08 18:00:00 33.4 18 Oeste 32 Oeste 0 -- -- 26
2019-08-08 17:00:00 33.3 14 Oeste 31 Oeste 0 -- -- 27
2019-08-08 16:00:00 32.8 13 Sudoeste 32 Sudoeste 0 -- -- 29
2019-08-08 15:00:00 31.7 15 Sudoeste 33 Sudoeste 0 -- -- 31
2019-08-08 14:00:00 30.5 13 Sudoeste 26 Sudoeste 0 -- -- 32
2019-08-08 13:00:00 28.8 11 Oeste 24 Oeste 0 -- -- 32
2019-08-08 12:00:00 27.6 12 Oeste 21 Noroeste 0 -- -- 34
2019-08-08 11:00:00 26.1 12 Sudoeste 20 Sudoeste 0 -- -- 40
2019-08-08 10:00:00 23.9 8 Noroeste 15 Nordeste 0 -- -- 48
2019-08-08 09:00:00 19 0 Calma 7 Noroeste 0 -- -- 59
2019-08-08 08:00:00 15.9 0 Calma 6 Norte 0 -- -- 62
2019-08-08 07:00:00 16.6 3 Norte 9 Norte 0 -- -- 62
2019-08-08 06:00:00 16.1 3 Norte 4 Noroeste 0 -- -- 62
2019-08-08 05:00:00 16.5 0 Calma 4 Noroeste 0 -- -- 54
2019-08-08 04:00:00 17.1 2 Sudoeste 5 Sur 0 -- -- 57
2019-08-08 03:00:00 18.2 0 Calma 5 Nordeste 0 -- -- 52
2019-08-08 02:00:00 19.3 0 Calma 6 Oeste 0 -- -- 50
2019-08-08 01:00:00 22.4 4 Noroeste 19 Noroeste 0 -- -- 45
2019-08-08 00:00:00 23.8 9 Noroeste 15 Noroeste 0 -- -- 44
2019-08-07 23:00:00 24.9 5 Noroeste 16 Noroeste 0 -- -- 39
2019-08-07 22:00:00 26 9 Noroeste 19 Noroeste 0 -- -- 35
2019-08-07 21:00:00 27.3 13 Noroeste 24 Noroeste 0 -- -- 32
2019-08-07 20:00:00 28.4 13 Noroeste 25 Oeste 0 -- -- 29
2019-08-07 19:00:00 29.5 11 Noroeste 27 Noroeste 0 -- -- 27
2019-08-07 18:00:00 30.9 14 Noroeste 27 Oeste 0 -- -- 24
2019-08-07 17:00:00 31.3 15 Oeste 32 Oeste 0 -- -- 24
2019-08-07 16:00:00 32 17 Oeste 37 Oeste 0 -- -- 23
2019-08-07 15:00:00 31.2 16 Oeste 32 Sudoeste 0 -- -- 22
2019-08-07 14:00:00 30.2 17 Oeste 33 Oeste 0 -- -- 24
2019-08-07 13:00:00 28.9 17 Oeste 35 Oeste 0 -- -- 27
2019-08-07 12:00:00 28.9 21 Oeste 35 Oeste 0 -- -- 29
2019-08-07 11:00:00 26.5 15 Oeste 25 Oeste 0 -- -- 36
2019-08-07 10:00:00 23.3 6 Oeste 17 Oeste 0 -- -- 36
2019-08-07 09:00:00 17.9 3 Nordeste 5 Este 0 -- -- 35
2019-08-07 08:00:00 14.5 3 Nordeste 5 Nordeste 0 -- -- 38
2019-08-07 07:00:00 13.9 3 Nordeste 5 Nordeste 0 -- -- 38
2019-08-07 06:00:00 15 0 Calma 5 Nordeste 0 -- -- 33
2019-08-07 05:00:00 15.8 4 Nordeste 8 Nordeste 0 -- -- 31
2019-08-07 04:00:00 15.9 4 Nordeste 9 Nordeste 0 -- -- 29
2019-08-07 03:00:00 16.8 2 Este 8 Nordeste 0 -- -- 28
2019-08-07 02:00:00 17.9 4 Este 9 Nordeste 0 -- -- 27
2019-08-07 01:00:00 18.8 5 Nordeste 9 Nordeste 0 -- -- 27
2019-08-07 00:00:00 20 3 Nordeste 5 Nordeste 0 -- -- 28
2019-08-06 23:00:00 23.2 0 Calma 4 Nordeste 0 -- -- 25
2019-08-06 22:00:00 27 3 Oeste 9 Oeste 0 -- -- 19
2019-08-06 21:00:00 31.5 5 Oeste 22 Oeste 0 -- -- 17
2019-08-06 20:00:00 33.7 15 Oeste 27 Oeste 0 -- -- 15
2019-08-06 19:00:00 35 11 Oeste 37 Sudoeste 0 -- -- 15
2019-08-06 18:00:00 35.4 16 Oeste 32 Sudoeste 0 -- -- 14
2019-08-06 17:00:00 35.3 15 Oeste 36 Oeste 0 -- -- 14
2019-08-06 16:00:00 35.1 17 Oeste 43 Sudoeste 0 -- -- 14
2019-08-06 15:00:00 34.5 13 Sudoeste 28 Sudoeste 0 -- -- 15
2019-08-06 14:00:00 33.3 11 Oeste 28 Sudoeste 0 -- -- 15
2019-08-06 13:00:00 32 9 Oeste 26 Noroeste 0 -- -- 18
2019-08-06 12:00:00 30 11 Oeste 22 Oeste 0 -- -- 21
2019-08-06 11:00:00 27.2 10 Oeste 17 Oeste 0 -- -- 32
2019-08-06 10:00:00 24.1 7 Oeste 13 Oeste 0 -- -- 50
2019-08-06 09:00:00 19.1 0 Calma 6 Nordeste 0 -- -- 84
2019-08-06 08:00:00 16.7 3 Este 6 Nordeste 0 -- -- 87
2019-08-06 07:00:00 16.8 0 Calma 5 Norte 0 -- -- 86
2019-08-06 06:00:00 18.6 2 Nordeste 7 Norte 0 -- -- 79
2019-08-06 05:00:00 20.5 4 Nordeste 11 Nordeste 0 -- -- 78
2019-08-06 04:00:00 21.4 3 Nordeste 9 Nordeste 0 -- -- 78
2019-08-06 03:00:00 22.2 5 Nordeste 15 Nordeste 0 -- -- 77
2019-08-06 02:00:00 22.6 3 Este 14 Nordeste 0 -- -- 73
2019-08-06 01:00:00 24.2 7 Este 19 Este 0 -- -- 66
2019-08-06 00:00:00 25.3 8 Este 24 Este 0 -- -- 65
2019-08-05 23:00:00 27.2 13 Este 24 Este 0 -- -- 58
2019-08-05 22:00:00 28.7 8 Este 21 Sudeste 0 -- -- 45
2019-08-05 21:00:00 32.4 5 Oeste 16 Sudoeste 0 -- -- 19
2019-08-05 20:00:00 34.5 8 Oeste 24 Sudoeste 0 -- -- 18
2019-08-05 19:00:00 35 10 Sur 22 Sur 0 -- -- 17
2019-08-05 18:00:00 35.4 11 Sudoeste 19 Sudoeste 0 -- -- 17
2019-08-05 17:00:00 35.6 11 Sudoeste 23 Sudoeste 0 -- -- 16
2019-08-05 16:00:00 35.3 14 Sur 29 Sur 0 -- -- 17
2019-08-05 15:00:00 34.6 15 Sudoeste 30 Sudoeste 0 -- -- 21
2019-08-05 14:00:00 33.7 16 Sudoeste 26 Sudoeste 0 -- -- 23
2019-08-05 13:00:00 32.3 9 Sudoeste 17 Sudoeste 0 -- -- 24
2019-08-05 12:00:00 30.2 6 Sudoeste 24 Noroeste 0 -- -- 37
2019-08-05 11:00:00 27.4 6 Sur 12 Sur 0 -- -- 48
2019-08-05 10:00:00 24.8 3 Sur 6 Sur 0 -- -- 55
2019-08-05 09:00:00 20 3 Nordeste 10 Nordeste 0 -- -- 67
2019-08-05 08:00:00 17.3 2 Nordeste 8 Nordeste 0 -- -- 75
2019-08-05 07:00:00 18 5 Norte 8 Nordeste 0 -- -- 73
2019-08-05 06:00:00 18.7 3 Nordeste 9 Nordeste 0 -- -- 68
2019-08-05 05:00:00 20.3 6 Nordeste 14 Nordeste 0 -- -- 68
2019-08-05 04:00:00 21 9 Nordeste 15 Nordeste 0 -- -- 68
2019-08-05 03:00:00 21.8 8 Este 16 Este 0 -- -- 65
2019-08-05 02:00:00 22.9 7 Este 15 Este 0 -- -- 62
2019-08-05 01:00:00 24.1 5 Este 16 Este 0 -- -- 60
2019-08-05 00:00:00 25.2 10 Este 21 Sudeste 0 -- -- 57
2019-08-04 23:00:00 26.8 10 Este 24 Nordeste 0 -- -- 50
2019-08-04 22:00:00 28.8 5 Noroeste 10 Oeste 0 -- -- 24
2019-08-04 21:00:00 32 7 Noroeste 18 Noroeste 0 -- -- 21
2019-08-04 20:00:00 34 9 Oeste 25 Noroeste 0 -- -- 20
2019-08-04 19:00:00 34.8 12 Oeste 26 Oeste 0 -- -- 19
2019-08-04 18:00:00 35.2 10 Oeste 30 Sudoeste 0 -- -- 19
2019-08-04 17:00:00 35 10 Sudoeste 30 Sudoeste 0 -- -- 18
2019-08-04 16:00:00 34.8 13 Sudoeste 29 Sudoeste 0 -- -- 20
2019-08-04 15:00:00 34 11 Oeste 26 Sudoeste 0 -- -- 21
2019-08-04 14:00:00 33.3 6 Oeste 21 Sudoeste 0 -- -- 20
2019-08-04 13:00:00 32.1 12 Sudoeste 22 Sudoeste 0 -- -- 22
2019-08-04 12:00:00 29.5 7 Sudoeste 20 Oeste 0 -- -- 29
2019-08-04 11:00:00 26.3 6 Sudoeste 15 Sudoeste 0 -- -- 49
2019-08-04 10:00:00 24 3 Sudeste 6 Sur 0 -- -- 59
2019-08-04 09:00:00 19.1 0 Calma 9 Nordeste 0 -- -- 77
2019-08-04 08:00:00 17.7 4 Nordeste 10 Norte 0 -- -- 76
2019-08-04 07:00:00 16.6 0 Calma 7 Norte 0 -- -- 76
2019-08-04 06:00:00 19.4 4 Nordeste 9 Norte 0 -- -- 71
2019-08-04 05:00:00 20.4 3 Nordeste 10 Nordeste 0 -- -- 69
2019-08-04 04:00:00 20.8 6 Nordeste 13 Nordeste 0 -- -- 69
2019-08-04 03:00:00 21.3 6 Este 13 Este 0 -- -- 68
2019-08-04 02:00:00 22.3 4 Este 19 Este 0 -- -- 68
2019-08-04 01:00:00 23.4 11 Este 24 Este 0 -- -- 65
2019-08-04 00:00:00 25 12 Sudeste 22 Sudeste 0 -- -- 60
2019-08-03 23:00:00 26.8 9 Este 21 Este 0 -- -- 55
2019-08-03 22:00:00 28.7 12 Sudeste 22 Este 0 -- -- 49
2019-08-03 21:00:00 31.6 4 Sudoeste 15 Sudoeste 0 -- -- 21
2019-08-03 20:00:00 33.7 9 Sur 14 Sur 0 -- -- 19
2019-08-03 19:00:00 34.6 11 Sur 19 Sudoeste 0 -- -- 19
2019-08-03 18:00:00 34.8 10 Sudoeste 22 Sur 0 -- -- 19
2019-08-03 17:00:00 34.6 9 Sur 27 Sur 0 -- -- 21
2019-08-03 16:00:00 34.2 13 Sur 22 Sudoeste 0 -- -- 22
2019-08-03 15:00:00 32.9 5 Sudeste 20 Sudoeste 0 -- -- 25
2019-08-03 14:00:00 31.7 12 Sudoeste 23 Sur 0 -- -- 28
2019-08-03 13:00:00 30 10 Sudeste 22 Sur 0 -- -- 30
2019-08-03 12:00:00 27.7 10 Sudeste 21 Sudeste 0 -- -- 42
2019-08-03 11:00:00 25.4 12 Sudeste 22 Sur 0 -- -- 50
2019-08-03 10:00:00 24 12 Sudeste 22 Sudeste 0 -- -- 47
2019-08-03 09:00:00 21.1 10 Este 21 Este 0 -- -- 48
2019-08-03 08:00:00 19.1 7 Nordeste 13 Este 0 -- -- 52
2019-08-03 07:00:00 19.1 6 Nordeste 14 Nordeste 0 -- -- 54
2019-08-03 06:00:00 19.3 8 Nordeste 16 Este 0 -- -- 53
2019-08-03 05:00:00 19.6 9 Este 21 Este 0 -- -- 51
2019-08-03 04:00:00 19.5 6 Este 19 Este 0 -- -- 54
2019-08-03 03:00:00 19.8 7 Este 18 Sudeste 0 -- -- 54
2019-08-03 02:00:00 20.6 6 Este 18 Nordeste 0 -- -- 56
2019-08-03 01:00:00 21.8 5 Este 16 Este 0 -- -- 55
2019-08-03 00:00:00 23.1 7 Este 19 Nordeste 0 -- -- 54
2019-08-02 23:00:00 24.6 6 Este 30 Sudeste 0 -- -- 50
2019-08-02 22:00:00 26.5 16 Este 32 Este 0 -- -- 45
2019-08-02 21:00:00 31.3 10 Sudeste 32 Este 0 -- -- 33
2019-08-02 20:00:00 34.1 4 Oeste 16 Oeste 0 -- -- 16
2019-08-02 19:00:00 34.5 10 Oeste 20 Sudoeste 0 -- -- 15
2019-08-02 18:00:00 34.7 10 Sudoeste 24 Noroeste 0 -- -- 15
2019-08-02 17:00:00 34 8 Sur 24 Sudoeste 0 -- -- 18
2019-08-02 16:00:00 34.1 6 Sur 23 Noroeste 0 -- -- 19
2019-08-02 15:00:00 32.9 6 Sur 21 Noroeste 0 -- -- 22
2019-08-02 14:00:00 31.8 8 Noroeste 20 Sudoeste 0 -- -- 25
2019-08-02 13:00:00 30.7 6 Sudoeste 14 Sudoeste 0 -- -- 29
2019-08-02 12:00:00 28 3 Sur 13 Sudoeste 0 -- -- 41
2019-08-02 11:00:00 26.2 4 Sur 11 Sur 0 -- -- 55
2019-08-02 10:00:00 23.3 3 Este 8 Sudeste 0 -- -- 65
2019-08-02 09:00:00 18.6 3 Nordeste 9 Norte 0 -- -- 85
2019-08-02 08:00:00 15.9 4 Nordeste 7 Norte 0 -- -- 90
2019-08-02 07:00:00 15.9 4 Nordeste 8 Norte 0 -- -- 84
2019-08-02 06:00:00 16.9 3 Este 11 Nordeste 0 -- -- 80
2019-08-02 05:00:00 18.4 4 Nordeste 11 Norte 0 -- -- 81
2019-08-02 04:00:00 19.1 7 Nordeste 13 Nordeste 0 -- -- 79
2019-08-02 03:00:00 20.3 5 Nordeste 10 Nordeste 0 -- -- 76
2019-08-02 02:00:00 20.9 2 Este 12 Este 0 -- -- 73
2019-08-02 01:00:00 22.5 3 Este 15 Este 0 -- -- 68
2019-08-02 00:00:00 24.1 3 Norte 10 Sudeste 0 -- -- 59
2019-08-01 23:00:00 23.7 4 Este 12 Sudeste 0 -- -- 38
2019-08-01 22:00:00 26.7 0 Calma 11 Oeste 0 -- -- 27
2019-08-01 21:00:00 30.8 7 Oeste 25 Oeste 0 -- -- 22
2019-08-01 20:00:00 32.3 13 Oeste 30 Sudoeste 0 -- -- 22
2019-08-01 19:00:00 33.1 13 Sudoeste 34 Sudoeste 0 -- -- 23
2019-08-01 18:00:00 33.4 16 Sudoeste 29 Sudoeste 0 -- -- 25
2019-08-01 17:00:00 32.8 8 Oeste 21 Sur 0 -- -- 27
2019-08-01 16:00:00 32.7 12 Sudoeste 22 Sur 0 -- -- 28
2019-08-01 15:00:00 30.8 7 Sudoeste 26 Sudoeste 0 -- -- 33
2019-08-01 14:00:00 28.8 8 Sudoeste 18 Sudoeste 0 -- -- 38
2019-08-01 13:00:00 26.9 8 Sudoeste 15 Sudoeste 0 -- -- 46
2019-08-01 12:00:00 24.8 10 Sur 22 Sur 0 -- -- 54
2019-08-01 11:00:00 22.9 10 Sudeste 21 Este 0 -- -- 62
2019-08-01 10:00:00 21.6 9 Este 22 Este 0 -- -- 69
2019-08-01 09:00:00 18.3 7 Este 22 Este 0 -- -- 84
2019-08-01 08:00:00 17 12 Este 25 Este 0 -- -- 89
2019-08-01 07:00:00 16.9 10 Este 26 Este 0 -- -- 88
2019-08-01 06:00:00 17 16 Sudeste 31 Sudeste 0 -- -- 89
2019-08-01 05:00:00 16.1 8 Este 19 Este 0 -- -- 89
2019-08-01 04:00:00 16.4 5 Este 18 Este 0 -- -- 88
2019-08-01 03:00:00 16.9 4 Este 14 Este 0 -- -- 87
2019-08-01 02:00:00 17.5 7 Este 27 Este 0 -- -- 85
2019-08-01 01:00:00 18.2 9 Este 38 Este 0 -- -- 85
2019-08-01 00:00:00 19 20 Este 38 Este 0 -- -- 80
2019-07-31 23:00:00 19.8 14 Este 34 Sudeste 0 -- -- 74
2019-07-31 22:00:00 21.3 18 Este 34 Este 0 -- -- 67
2019-07-31 21:00:00 23.4 13 Este 32 Este 0 -- -- 61
2019-07-31 20:00:00 25.6 13 Este 32 Este 0 -- -- 57
2019-07-31 19:00:00 27.2 14 Este 35 Este 0 -- -- 53
2019-07-31 18:00:00 27.9 17 Este 39 Sudeste 0 -- -- 51
2019-07-31 17:00:00 28.1 17 Este 40 Sudeste 0 -- -- 50
2019-07-31 16:00:00 28.2 19 Sudeste 45 Sudeste 0 -- -- 47
2019-07-31 15:00:00 27.5 19 Sudeste 43 Sudeste 0 -- -- 47
2019-07-31 14:00:00 26.7 21 Sudeste 39 Sudeste 0 -- -- 48
2019-07-31 13:00:00 25.9 24 Sudeste 42 Sudeste 0 -- -- 49
2019-07-31 12:00:00 25.4 23 Sudeste 40 Este 0 -- -- 52
2019-07-31 11:00:00 23.7 23 Sudeste 42 Este 0 -- -- 59
2019-07-31 10:00:00 21.4 19 Este 36 Este 0 -- -- 69
2019-07-31 09:00:00 19.5 13 Este 31 Este 0 -- -- 79
2019-07-31 08:00:00 17.9 12 Este 27 Este 0 -- -- 85
2019-07-31 07:00:00 17.3 9 Este 21 Este 0 -- -- 89
2019-07-31 06:00:00 17.6 6 Este 24 Este 0 -- -- 89
2019-07-31 05:00:00 17.6 13 Sudeste 28 Sudeste 0 -- -- 88
2019-07-31 04:00:00 17.7 8 Sudeste 19 Sudeste 0 -- -- 79
2019-07-31 03:00:00 18.6 5 Este 17 Este 0 -- -- 73
2019-07-31 02:00:00 19.4 8 Este 21 Este 0 -- -- 70
2019-07-31 01:00:00 20.2 8 Este 26 Este 0 -- -- 71
2019-07-31 00:00:00 20.9 9 Este 27 Sudeste 0 -- -- 63
2019-07-30 23:00:00 22.1 9 Este 33 Este 0 -- -- 68
2019-07-30 22:00:00 23.7 17 Este 34 Sudeste 0 -- -- 59
2019-07-30 21:00:00 26.3 16 Este 37 Sudeste 0 -- -- 54
2019-07-30 20:00:00 30.4 16 Sudeste 31 Sudeste 0 -- -- 41
2019-07-30 19:00:00 32.1 10 Sudoeste 23 Sudoeste 0 -- -- 21
2019-07-30 18:00:00 32.5 13 Sudoeste 25 Sudoeste 0 -- -- 20
2019-07-30 17:00:00 32.4 13 Sudoeste 26 Sudoeste 0 -- -- 20
2019-07-30 16:00:00 32 16 Sudoeste 25 Sudoeste 0 -- -- 20
2019-07-30 15:00:00 31.3 13 Sudoeste 36 Sudoeste 0 -- -- 22
2019-07-30 14:00:00 30.1 10 Noroeste 24 Noroeste 0 -- -- 24
2019-07-30 13:00:00 29.7 8 Sur 21 Oeste 0 -- -- 25
2019-07-30 12:00:00 28.1 7 Sudoeste 14 Sudoeste 0 -- -- 26
2019-07-30 11:00:00 26.6 6 Sur 13 Sur 0 -- -- 27
2019-07-30 10:00:00 24 5 Sur 9 Sudoeste 0 -- -- 30
2019-07-30 09:00:00 18.1 4 Nordeste 10 Nordeste 0 -- -- 40
2019-07-30 08:00:00 14.2 5 Nordeste 8 Norte 0 -- -- 46
2019-07-30 07:00:00 13.8 5 Nordeste 9 Nordeste 0 -- -- 48
2019-07-30 06:00:00 13.5 0 Calma 6 Norte 0 -- -- 45
2019-07-30 05:00:00 15.5 3 Norte 8 Norte 0 -- -- 41
2019-07-30 04:00:00 15 0 Calma 4 Nordeste 0 -- -- 40
2019-07-30 03:00:00 16.1 0 Calma 3 Sudeste 0 -- -- 38
2019-07-30 02:00:00 17.4 0 Calma 3 Noroeste 0 -- -- 35
2019-07-30 01:00:00 19.3 0 Calma 4 Noroeste 0 -- -- 30
2019-07-30 00:00:00 22.1 3 Oeste 11 Noroeste 0 -- -- 26
2019-07-29 23:00:00 24.8 7 Noroeste 16 Noroeste 0 -- -- 22
2019-07-29 22:00:00 26.5 8 Oeste 16 Oeste 0 -- -- 20
2019-07-29 21:00:00 28.8 9 Oeste 30 Sudoeste 0 -- -- 23
2019-07-29 20:00:00 30.7 15 Sudoeste 30 Sudoeste 0 -- -- 24
2019-07-29 19:00:00 31.5 21 Sudoeste 35 Sudoeste 0 -- -- 24
2019-07-29 18:00:00 31.8 15 Sudoeste 32 Oeste 0 -- -- 24
2019-07-29 17:00:00 31.6 13 Oeste 30 Sudoeste 0 -- -- 25
2019-07-29 16:00:00 31 14 Oeste 29 Oeste 0 -- -- 28
2019-07-29 15:00:00 30.8 14 Oeste 28 Sudoeste 0 -- -- 27
2019-07-29 14:00:00 30 13 Sudoeste 28 Sudoeste 0 -- -- 29
2019-07-29 13:00:00 29 10 Sudoeste 23 Sudoeste 0 -- -- 33
2019-07-29 12:00:00 27.2 8 Sur 17 Sur 0 -- -- 38
2019-07-29 11:00:00 24.9 5 Sudoeste 11 Sudoeste 0 -- -- 44
2019-07-29 10:00:00 22.6 5 Oeste 9 Oeste 0 -- -- 50
2019-07-29 09:00:00 18.2 3 Nordeste 9 Nordeste 0 -- -- 67
2019-07-29 08:00:00 15.9 6 Nordeste 12 Nordeste 0 -- -- 72
2019-07-29 07:00:00 16 5 Nordeste 10 Nordeste 0 -- -- 68
2019-07-29 06:00:00 16.7 4 Nordeste 9 Norte 0 -- -- 68
2019-07-29 05:00:00 17.3 4 Nordeste 8 Nordeste 0 -- -- 66
2019-07-29 04:00:00 17.3 4 Nordeste 7 Nordeste 0 -- -- 63
2019-07-29 03:00:00 18.5 3 Nordeste 8 Nordeste 0 -- -- 59
2019-07-29 02:00:00 19.5 4 Nordeste 12 Sudeste 0 -- -- 58
2019-07-29 01:00:00 19.2 8 Este 16 Este 0 -- -- 53
2019-07-29 00:00:00 19.6 4 Nordeste 6 Nordeste 0 -- -- 35
2019-07-28 23:00:00 20.9 3 Nordeste 8 Noroeste 0 -- -- 33
2019-07-28 22:00:00 24.1 5 Noroeste 12 Noroeste 0 -- -- 29
2019-07-28 21:00:00 26.8 9 Noroeste 20 Noroeste 0 -- -- 26
2019-07-28 20:00:00 28.3 10 Noroeste 19 Noroeste 0 -- -- 25
2019-07-28 19:00:00 29 8 Sudoeste 22 Oeste 0 -- -- 23
2019-07-28 18:00:00 29 9 Oeste 24 Noroeste 0 -- -- 23
2019-07-28 17:00:00 28.4 11 Oeste 24 Oeste 0 -- -- 23
2019-07-28 16:00:00 28.2 11 Oeste 31 Sudoeste 0 -- -- 22
2019-07-28 15:00:00 27.7 14 Sudoeste 29 Sudoeste 0 -- -- 27
2019-07-28 14:00:00 26.6 13 Oeste 30 Oeste 0 -- -- 29
2019-07-28 13:00:00 25.7 17 Oeste 33 Sudoeste 0 -- -- 30
2019-07-28 12:00:00 24.2 11 Oeste 26 Noroeste 0 -- -- 33
2019-07-28 11:00:00 22.2 8 Sudoeste 15 Sudoeste 0 -- -- 39
2019-07-28 10:00:00 19.9 5 Nordeste 17 Nordeste 0 -- -- 45
2019-07-28 09:00:00 15.5 7 Norte 11 Norte 0 -- -- 63
2019-07-28 08:00:00 12.9 2 Oeste 10 Norte 0 -- -- 70
2019-07-28 07:00:00 13.7 6 Norte 11 Norte 0 -- -- 67
2019-07-28 06:00:00 13.1 4 Nordeste 6 Nordeste 0 -- -- 64
2019-07-28 05:00:00 13.4 3 Norte 7 Oeste 0 -- -- 60
2019-07-28 04:00:00 14.2 0 Calma 13 Norte 0 -- -- 56
2019-07-28 03:00:00 16.4 5 Norte 12 Norte 0 -- -- 52
2019-07-28 02:00:00 17.5 2 Nordeste 10 Oeste 0 -- -- 57
2019-07-28 01:00:00 19.1 7 Noroeste 12 Noroeste 0 -- -- 57
2019-07-28 00:00:00 20.4 5 Noroeste 19 Oeste 0 -- -- 53
2019-07-27 23:00:00 21.9 11 Noroeste 27 Noroeste 0 -- -- 49
2019-07-26 12:00:00 -- -- -- -- -- -- -- -- --
2019-07-26 11:00:00 -- -- -- -- -- -- -- -- --
2019-07-26 10:00:00 -- -- -- -- -- -- -- -- --
2019-07-26 09:00:00 20.8 2 Este 8 Este 0 -- -- 55
2019-07-26 08:00:00 19.6 2 Nordeste 5 Este 0 -- -- 58
2019-07-26 07:00:00 19.7 0 Calma 5 Este 0 -- -- 58
2019-07-26 06:00:00 20.2 2 Este 10 Sudeste 0 -- -- 57
2019-07-26 05:00:00 20.5 3 Este 14 Nordeste 0 -- -- 56
2019-07-26 04:00:00 21 6 Nordeste 18 Este 0 -- -- 56
2019-07-26 03:00:00 21.6 9 Este 22 Sudeste 0 -- -- 54
2019-07-26 02:00:00 22.3 8 Este 21 Este 0 -- -- 52
2019-07-26 01:00:00 23.5 10 Este 25 Sudeste 0 -- -- 50
2019-07-26 00:00:00 24.9 14 Este 24 Este 0 -- -- 48
2019-07-25 23:00:00 27 12 Este 20 Sur 0 -- -- 43
2019-07-25 22:00:00 29.4 15 Sur 25 Sur 0 -- -- 24
2019-07-25 21:00:00 31.1 18 Sur 31 Sur 0 -- -- 24
2019-07-25 20:00:00 33 18 Sur 30 Sudeste 0 -- -- 21
2019-07-25 19:00:00 33.9 18 Sur 31 Sudeste 0 -- -- 20
2019-07-25 18:00:00 35 11 Sur 30 Sur 0 -- -- 19
2019-07-25 17:00:00 35.1 17 Sur 31 Sur 0 -- -- 18
2019-07-25 16:00:00 34.6 17 Sur 30 Sudeste 0 -- -- 19
2019-07-25 15:00:00 34 11 Sur 31 Sur 0 -- -- 20
2019-07-25 14:00:00 33 9 Sur 22 Sur 0 -- -- 28
2019-07-25 13:00:00 31.9 12 Sur 21 Sur 0 -- -- 30
2019-07-25 12:00:00 30.3 8 Sudeste 16 Sur 0 -- -- 32
2019-07-25 11:00:00 27.8 7 Sur 17 Sur 0 -- -- 34
2019-07-25 10:00:00 25.6 13 Sur 19 Sur 0 -- -- 35
2019-07-25 09:00:00 22.2 2 Este 10 Nordeste 0 -- -- 43
2019-07-25 08:00:00 20.7 7 Nordeste 12 Nordeste 0 -- -- 45
2019-07-25 07:00:00 20.5 4 Nordeste 12 Nordeste 0 -- -- 45
2019-07-25 06:00:00 20.9 6 Nordeste 13 Nordeste 0 -- -- 44
2019-07-25 05:00:00 21.2 9 Nordeste 17 Nordeste 0 -- -- 43
2019-07-25 04:00:00 21.4 4 Este 14 Este 0 -- -- 41
2019-07-25 03:00:00 21.9 5 Este 16 Este 0 -- -- 41
2019-07-25 02:00:00 22.1 4 Este 17 Este 0 -- -- 41
2019-07-25 01:00:00 23.1 9 Este 20 Este 0 -- -- 40
2019-07-25 00:00:00 24.5 9 Este 27 Sudeste 0 -- -- 38
2019-07-24 23:00:00 26 14 Este 28 Este 0 -- -- 35
2019-07-24 22:00:00 27.7 13 Este 29 Este 0 -- -- 34
2019-07-24 21:00:00 30.3 14 Este 33 Sudeste 0 -- -- 31
2019-07-24 20:00:00 32.5 20 Sudeste 38 Sudeste 0 -- -- 27
2019-07-24 19:00:00 34.6 26 Sur 40 Sudeste 0 -- -- 20
2019-07-24 18:00:00 35.7 21 Sur 32 Sur 0 -- -- 19
2019-07-24 17:00:00 35.8 24 Sudeste 40 Sur 0 -- -- 19
2019-07-24 16:00:00 36.1 16 Sur 35 Sudeste 0 -- -- 19
2019-07-24 15:00:00 35.4 19 Sur 38 Sur 0 -- -- 21
2019-07-24 14:00:00 34.5 16 Sudeste 35 Sudeste 0 -- -- 22
2019-07-24 13:00:00 32.9 16 Sudeste 33 Sudeste 0 -- -- 23
2019-07-24 12:00:00 31.3 13 Sudeste 26 Sudeste 0 -- -- 25
2019-07-24 11:00:00 30 10 Sudeste 19 Este 0 -- -- 28
2019-07-24 10:00:00 28.1 8 Este 20 Este 0 -- -- 30
2019-07-24 09:00:00 23.1 4 Nordeste 13 Este 0 -- -- 39
2019-07-24 08:00:00 20.5 6 Nordeste 10 Este 0 -- -- 43
2019-07-24 07:00:00 20.4 6 Nordeste 13 Este 0 -- -- 43
2019-07-24 06:00:00 21.2 4 Nordeste 9 Norte 0 -- -- 42
2019-07-24 05:00:00 21.4 3 Norte 8 Nordeste 0 -- -- 43
2019-07-24 04:00:00 23 2 Norte 15 Nordeste 0 -- -- 39
2019-07-24 03:00:00 23.3 6 Norte 13 Norte 0 -- -- 37
2019-07-24 02:00:00 23.6 3 Nordeste 14 Nordeste 0 -- -- 36
2019-07-24 01:00:00 24.1 3 Este 15 Nordeste 0 -- -- 36
2019-07-24 00:00:00 25.3 12 Este 17 Nordeste 0 -- -- 35
2019-07-23 23:00:00 26.2 4 Sudeste 21 Este 0 -- -- 34
2019-07-23 22:00:00 28 13 Este 28 Este 0 -- -- 34
2019-07-23 21:00:00 30.3 17 Sudeste 32 Sudeste 0 -- -- 32
2019-07-23 20:00:00 32.8 18 Sudeste 42 Sudeste 0 -- -- 28
2019-07-23 19:00:00 34.9 24 Sur 41 Sudeste 0 -- -- 18
2019-07-23 18:00:00 35.1 27 Sudeste 42 Sudeste 0 -- -- 18
2019-07-23 17:00:00 35.2 29 Sur 43 Sur 0 -- -- 19
2019-07-23 16:00:00 35.6 22 Sur 37 Sudeste 0 -- -- 19
2019-07-23 15:00:00 34.6 17 Sudeste 36 Sudeste 0 -- -- 24
2019-07-23 14:00:00 33.6 20 Sudeste 33 Sudeste 0 -- -- 24
2019-07-23 13:00:00 32.4 17 Sudeste 30 Sudeste 0 -- -- 24
2019-07-23 12:00:00 30.2 15 Sudeste 32 Este 0 -- -- 28
2019-07-23 11:00:00 28.7 18 Sudeste 33 Este 0 -- -- 31
2019-07-23 10:00:00 27 14 Este 24 Este 0 -- -- 34
2019-07-23 09:00:00 23.3 7 Este 16 Nordeste 0 -- -- 42
2019-07-23 08:00:00 19.8 9 Nordeste 13 Nordeste 0 -- -- 41
2019-07-23 07:00:00 19.3 0 Calma 12 Este 0 -- -- 40
2019-07-23 06:00:00 20.3 7 Este 15 Este 0 -- -- 38
2019-07-23 05:00:00 20.9 10 Este 19 Este 0 -- -- 37
2019-07-23 04:00:00 21 6 Este 17 Nordeste 0 -- -- 37
2019-07-23 03:00:00 21.1 7 Este 17 Este 0 -- -- 37
2019-07-23 02:00:00 21.3 6 Este 18 Este 0 -- -- 38
2019-07-23 01:00:00 21.6 4 Este 17 Este 0 -- -- 39
2019-07-23 00:00:00 22.8 8 Este 24 Este 0 -- -- 38
2019-07-22 23:00:00 24.2 11 Este 30 Este 0 -- -- 40
2019-07-22 22:00:00 25.9 13 Este 31 Este 0 -- -- 39
2019-07-22 21:00:00 28.1 19 Este 35 Este 0 -- -- 36
2019-07-22 20:00:00 30.8 18 Este 40 Sudeste 0 -- -- 31
2019-07-22 19:00:00 32.8 19 Este 38 Este 0 -- -- 31
2019-07-22 18:00:00 34.4 20 Este 37 Este 0 -- -- 28
2019-07-22 17:00:00 34.2 21 Sudeste 40 Sudeste 0 -- -- 27
2019-07-22 16:00:00 34.4 19 Sudeste 38 Este 0 -- -- 25
2019-07-22 15:00:00 33 19 Sudeste 39 Sudeste 0 -- -- 25
2019-07-22 14:00:00 32.3 18 Sudeste 39 Este 0 -- -- 25
2019-07-22 13:00:00 31.5 19 Sudeste 37 Este 0 -- -- 26
2019-07-22 12:00:00 29.9 19 Este 35 Sudeste 0 -- -- 28
2019-07-22 11:00:00 27.8 16 Este 37 Este 0 -- -- 33
2019-07-22 10:00:00 25.7 16 Este 30 Este 0 -- -- 40
2019-07-22 09:00:00 22.5 7 Este 17 Este 0 -- -- 42
2019-07-22 08:00:00 20.3 6 Este 15 Este 0 -- -- 41
2019-07-22 07:00:00 19.3 5 Este 16 Nordeste 0 -- -- 42
2019-07-22 06:00:00 20.3 9 Nordeste 21 Este 0 -- -- 42
2019-07-22 05:00:00 20 6 Este 16 Nordeste 0 -- -- 42
2019-07-22 04:00:00 20.1 5 Este 17 Este 0 -- -- 43
2019-07-22 03:00:00 20.3 5 Este 15 Este 0 -- -- 43
2019-07-22 02:00:00 20.5 6 Este 19 Sudeste 0 -- -- 49
2019-07-22 01:00:00 21.4 6 Este 23 Este 0 -- -- 50
2019-07-22 00:00:00 22.5 9 Este 27 Sudeste 0 -- -- 44
2019-07-21 23:00:00 24.1 10 Este 28 Este 0 -- -- 41
2019-07-21 22:00:00 25.6 13 Este 31 Este 0 -- -- 36
2019-07-21 21:00:00 27.6 16 Este 37 Este 0 -- -- 36
2019-07-21 20:00:00 29.9 17 Este 35 Sudeste 0 -- -- 34
2019-07-21 19:00:00 31.8 14 Este 36 Este 0 -- -- 34
2019-07-21 18:00:00 32.4 19 Sudeste 37 Sudeste 0 -- -- 33
2019-07-21 17:00:00 32.9 20 Sudeste 41 Sudeste 0 -- -- 33
2019-07-21 16:00:00 33 17 Sudeste 36 Sudeste 0 -- -- 34
2019-07-21 15:00:00 32.5 18 Sudeste 37 Este 0 -- -- 34
2019-07-21 14:00:00 31.7 18 Sudeste 35 Sudeste 0 -- -- 33
2019-07-21 13:00:00 31 16 Sudeste 31 Sudeste 0 -- -- 31
2019-07-21 12:00:00 29.4 18 Sudeste 35 Sudeste 0 -- -- 34
2019-07-21 11:00:00 27.8 14 Este 28 Sudeste 0 -- -- 36
2019-07-21 10:00:00 25.6 13 Sudeste 23 Este 0 -- -- 41
2019-07-21 09:00:00 22.6 8 Este 19 Este 0 -- -- 49
2019-07-21 08:00:00 20.6 8 Nordeste 16 Nordeste 0 -- -- 55
2019-07-21 07:00:00 20 7 Nordeste 15 Este 0 -- -- 59
2019-07-21 06:00:00 20.3 7 Este 15 Este 0 -- -- 61
2019-07-21 05:00:00 20.3 9 Nordeste 15 Este 0 -- -- 60
2019-07-21 04:00:00 20.3 6 Este 17 Nordeste 0 -- -- 63
2019-07-21 03:00:00 20.7 5 Este 15 Nordeste 0 -- -- 64
2019-07-21 02:00:00 21.5 8 Este 21 Este 0 -- -- 62
2019-07-21 01:00:00 22.3 9 Este 25 Este 0 -- -- 58
2019-07-21 00:00:00 23.3 11 Este 26 Este 0 -- -- 51
2019-07-20 23:00:00 24.4 11 Este 30 Este 0 -- -- 45
2019-07-20 22:00:00 25.6 11 Este 35 Este 0 -- -- 43
2019-07-20 21:00:00 27.9 17 Este 40 Este 0 -- -- 41
2019-07-20 20:00:00 30.9 21 Este 37 Este 0 -- -- 33
2019-07-20 19:00:00 34 18 Este 34 Este 0 -- -- 29
2019-07-20 18:00:00 34.9 15 Sur 26 Sur 0 -- -- 24
2019-07-20 17:00:00 35.5 15 Sur 26 Sudeste 0 -- -- 21
2019-07-20 16:00:00 35 14 Sudeste 27 Sudeste 0 -- -- 21
2019-07-20 15:00:00 34.3 12 Sudeste 25 Sur 0 -- -- 21
2019-07-20 14:00:00 32.7 14 Sudeste 27 Sudeste 0 -- -- 26
2019-07-20 13:00:00 31.2 14 Sudeste 24 Sudeste 0 -- -- 30
2019-07-20 12:00:00 29.1 11 Sudeste 24 Sudeste 0 -- -- 33
2019-07-20 11:00:00 27.1 11 Sudeste 20 Sudeste 0 -- -- 38
2019-07-20 10:00:00 25.3 9 Sudeste 16 Sudeste 0 -- -- 43
2019-07-20 09:00:00 21.1 8 Nordeste 18 Este 0 -- -- 61
2019-07-20 08:00:00 18.5 8 Nordeste 14 Este 0 -- -- 70
2019-07-20 07:00:00 17.5 5 Nordeste 11 Este 0 -- -- 76
2019-07-20 06:00:00 17.7 3 Este 16 Sudeste 0 -- -- 78
2019-07-20 05:00:00 18.2 5 Este 17 Este 0 -- -- 75
2019-07-20 04:00:00 18.8 7 Este 17 Este 0 -- -- 70
2019-07-20 03:00:00 19.4 5 Este 17 Nordeste 0 -- -- 65
2019-07-20 02:00:00 20.1 6 Este 18 Este 0 -- -- 62
2019-07-20 01:00:00 21.2 6 Este 20 Este 0 -- -- 63
2019-07-20 00:00:00 22.6 6 Este 21 Este 0 -- -- 62
2019-07-19 23:00:00 23.9 11 Este 26 Este 0 -- -- 59
2019-07-19 22:00:00 25.8 15 Este 31 Este 0 -- -- 52
2019-07-19 21:00:00 29.1 18 Sudeste 34 Sudeste 0 -- -- 46
2019-07-19 20:00:00 32.4 18 Sur 30 Sur 0 -- -- 21
2019-07-19 19:00:00 33.5 14 Sudeste 31 Sur 0 -- -- 20
2019-07-19 18:00:00 33.6 17 Sur 42 Sur 0 -- -- 20
2019-07-19 17:00:00 34.1 15 Sudeste 32 Sur 0 -- -- 20
2019-07-19 16:00:00 33.8 16 Sur 36 Sur 0 -- -- 21
2019-07-19 15:00:00 33.5 17 Sudeste 32 Sudeste 0 -- -- 23
2019-07-19 14:00:00 32.2 17 Sudeste 30 Sudeste 0 -- -- 25
2019-07-19 13:00:00 30.3 18 Sudeste 32 Sur 0 -- -- 29
2019-07-19 12:00:00 28.3 17 Sudeste 29 Sudeste 0 -- -- 32
2019-07-19 11:00:00 27.1 15 Sudeste 29 Sudeste 0 -- -- 32
2019-07-19 10:00:00 25 13 Sudeste 24 Este 0 -- -- 38
2019-07-19 09:00:00 22.1 7 Este 16 Este 0 -- -- 44
2019-07-19 08:00:00 19.7 8 Este 13 Este 0 -- -- 53
2019-07-19 07:00:00 19.1 4 Nordeste 13 Sudeste 0 -- -- 54
2019-07-19 06:00:00 19.6 6 Este 15 Este 0 -- -- 54
2019-07-19 05:00:00 20.1 10 Este 22 Este 0 -- -- 54
2019-07-19 04:00:00 19.8 9 Este 20 Nordeste 0 -- -- 58
2019-07-19 03:00:00 20 9 Este 17 Este 0 -- -- 61
2019-07-19 02:00:00 20.6 8 Este 18 Nordeste 0 -- -- 63
2019-07-19 01:00:00 21.4 7 Este 23 Este 0 -- -- 61
2019-07-19 00:00:00 22.5 9 Este 22 Sudeste 0 -- -- 60